Terminal Aerodrome Forecast
Issued by NWS Tulsa, OK

Home | Current Version | Previous Version | Text Only | Print | Product List | Glossary On
Versions: 1 2 3 4 5 6 7 8 9 10 11 12 13 14
821
FTUS44 KTSA 261120
TAFFSM
TAF
KFSM 261120Z 2612/2712 07004KT P6SM BKN250
     FM261700 12008KT P6SM BKN150
     FM262100 16008KT P6SM BKN050
     FM270200 10005KT P6SM VCSH OVC025
      TEMPO 2702/2706 4SM -RA BR
     FM270600 06005KT 4SM BR OVC015=

USA.gov is the U.S. government's official web portal to all federal, state and local government web resources and services.